createdAt,value
2018-07-03T00:00:54.302Z,39.00
2018-07-03T00:03:23.693Z,38.68
2018-07-03T00:05:51.504Z,38.19
2018-07-03T00:08:19.433Z,38.21
2018-07-03T00:10:47.300Z,40.07
2018-07-03T00:13:15.177Z,38.07
2018-07-03T00:15:43.218Z,39.34
2018-07-03T00:18:11.299Z,38.90
2018-07-03T00:20:39.167Z,39.18
2018-07-03T00:23:07.042Z,40.29
2018-07-03T00:25:34.898Z,39.62
2018-07-03T00:28:02.832Z,38.94
2018-07-03T00:30:30.649Z,39.20
2018-07-03T00:32:58.569Z,38.76
2018-07-03T00:35:26.467Z,39.56
2018-07-03T00:37:54.341Z,39.06
2018-07-03T00:40:22.217Z,39.12
2018-07-03T00:42:50.113Z,40.35
2018-07-03T00:45:17.977Z,40.14
2018-07-03T00:47:45.874Z,39.70
2018-07-03T00:50:13.784Z,39.33
2018-07-03T00:52:41.661Z,39.12
2018-07-03T00:55:09.459Z,39.43
2018-07-03T00:57:37.352Z,40.38
2018-07-03T01:00:22.732Z,40.43
2018-07-03T01:02:50.746Z,39.43
2018-07-03T01:05:18.669Z,39.06
2018-07-03T01:07:46.730Z,40.49
2018-07-03T01:10:14.602Z,39.93
2018-07-03T01:12:42.534Z,40.05
2018-07-03T01:15:10.401Z,40.86
2018-07-03T01:17:38.321Z,39.92
2018-07-03T01:20:06.277Z,39.32
2018-07-03T01:22:34.200Z,40.60
2018-07-03T01:25:02.132Z,41.82
2018-07-03T01:27:29.942Z,42.21
2018-07-03T01:29:57.901Z,41.42
2018-07-03T01:32:25.757Z,40.29
2018-07-03T01:34:53.633Z,40.21
2018-07-03T01:37:21.510Z,41.54
2018-07-03T01:39:49.384Z,40.36
2018-07-03T01:42:17.289Z,41.90
2018-07-03T01:44:45.085Z,40.45
2018-07-03T01:47:13.014Z,40.53
2018-07-03T01:49:40.917Z,40.06
2018-07-03T01:52:08.760Z,40.60
2018-07-03T01:54:36.711Z,40.45
2018-07-03T01:57:04.649Z,42.11
2018-07-03T01:59:32.568Z,40.92
2018-07-03T02:02:00.485Z,41.89
2018-07-03T02:04:28.453Z,40.95
2018-07-03T02:06:56.428Z,41.21
2018-07-03T02:09:24.376Z,41.70
2018-07-03T02:11:52.228Z,41.89
2018-07-03T02:14:20.124Z,44.17
2018-07-03T02:16:48.026Z,42.22
2018-07-03T02:19:15.897Z,42.23
2018-07-03T02:21:43.761Z,42.10
2018-07-03T02:24:11.765Z,42.65
2018-07-03T02:26:39.684Z,43.62
2018-07-03T02:29:07.549Z,42.96
2018-07-03T02:31:35.489Z,42.87
2018-07-03T02:34:03.423Z,43.40
2018-07-03T02:36:31.352Z,42.90
2018-07-03T02:38:59.212Z,43.67
2018-07-03T02:41:27.073Z,43.17
2018-07-03T02:43:54.928Z,43.26
2018-07-03T02:46:22.817Z,43.04
2018-07-03T02:48:50.621Z,42.45
2018-07-03T02:51:18.552Z,42.55
2018-07-03T02:53:46.447Z,43.46
2018-07-03T02:56:14.309Z,43.63
2018-07-03T02:58:42.168Z,43.79
2018-07-03T03:01:10.956Z,43.82
2018-07-03T03:03:38.841Z,45.00
2018-07-03T03:06:06.682Z,44.36
2018-07-03T03:08:34.561Z,44.66
2018-07-03T03:11:02.402Z,44.83
2018-07-03T03:13:30.286Z,49.00
2018-07-03T03:15:58.127Z,46.46
2018-07-03T03:18:25.933Z,47.41
2018-07-03T03:20:53.837Z,47.09
2018-07-03T03:23:21.853Z,46.89
2018-07-03T03:25:49.719Z,46.55
2018-07-03T03:28:17.548Z,46.04
2018-07-03T03:30:45.433Z,45.87
2018-07-03T03:33:13.273Z,46.00
2018-07-03T03:35:41.093Z,46.60
2018-07-03T03:38:08.956Z,48.21
2018-07-03T03:40:36.886Z,47.63
2018-07-03T03:43:04.763Z,46.30
2018-07-03T03:45:32.614Z,47.97
2018-07-03T03:48:00.524Z,48.64
2018-07-03T03:50:28.397Z,48.17
2018-07-03T03:52:56.340Z,48.99
2018-07-03T03:55:24.354Z,48.25
2018-07-03T03:57:52.231Z,47.66
2018-07-03T04:00:20.096Z,48.46
2018-07-03T04:02:47.983Z,46.51
2018-07-03T04:05:15.868Z,45.83
2018-07-03T04:07:43.775Z,46.43
2018-07-03T04:10:11.673Z,46.42
2018-07-03T04:12:39.544Z,45.95
2018-07-03T04:15:07.828Z,47.79
2018-07-03T04:17:35.905Z,48.33
2018-07-03T04:20:04.249Z,48.31
2018-07-03T04:22:32.181Z,47.72
2018-07-03T04:25:00.053Z,47.93
2018-07-03T04:27:28.000Z,47.55
2018-07-03T04:29:55.969Z,46.87
2018-07-03T04:32:23.877Z,47.29
2018-07-03T04:34:51.768Z,47.44
2018-07-03T04:37:19.674Z,47.44
2018-07-03T04:39:47.640Z,47.33
2018-07-03T04:42:15.497Z,47.69
2018-07-03T04:44:43.440Z,47.51
2018-07-03T04:47:11.329Z,47.74
2018-07-03T04:49:39.246Z,47.76
2018-07-03T04:52:07.205Z,46.63
2018-07-03T04:54:35.174Z,46.60
2018-07-03T04:57:03.089Z,43.93
2018-07-03T04:59:31.058Z,42.51
2018-07-03T05:01:58.981Z,39.86
2018-07-03T05:04:26.941Z,37.50
2018-07-03T05:06:54.832Z,36.28
2018-07-03T05:09:22.717Z,34.29
2018-07-03T05:11:50.620Z,32.98
2018-07-03T05:14:18.436Z,31.71
2018-07-03T05:16:50.916Z,29.73
2018-07-03T05:19:18.816Z,28.26
2018-07-03T05:21:46.724Z,26.93
2018-07-03T05:24:14.601Z,26.25
2018-07-03T05:26:42.461Z,26.24
2018-07-03T05:29:10.353Z,24.77
2018-07-03T05:31:38.350Z,23.42
2018-07-03T05:34:06.900Z,22.79
2018-07-03T05:36:34.976Z,22.47
2018-07-03T05:39:03.048Z,21.46
2018-07-03T05:41:30.969Z,20.49
2018-07-03T05:43:58.865Z,20.44
2018-07-03T05:46:26.817Z,20.86
2018-07-03T05:48:54.678Z,19.27
2018-07-03T05:51:22.628Z,19.03
2018-07-03T05:53:50.465Z,19.89
2018-07-03T05:56:18.393Z,19.35
2018-07-03T05:58:46.318Z,20.01
2018-07-03T06:01:14.149Z,20.06
2018-07-03T06:03:42.117Z,21.45
2018-07-03T06:06:09.944Z,21.28
2018-07-03T06:08:37.893Z,22.60
2018-07-03T06:11:05.813Z,22.49
2018-07-03T06:13:33.690Z,22.68
2018-07-03T06:16:01.547Z,22.56
2018-07-03T06:18:29.471Z,22.48
2018-07-03T06:20:57.396Z,22.57
2018-07-03T06:23:25.273Z,23.27
2018-07-03T06:25:53.243Z,23.27
2018-07-03T06:28:21.168Z,23.15
2018-07-03T06:30:49.168Z,23.10
2018-07-03T06:33:17.070Z,23.06
2018-07-03T06:35:44.874Z,23.17
2018-07-03T06:38:12.837Z,22.95
2018-07-03T06:40:40.677Z,23.01
2018-07-03T06:43:08.541Z,23.00
2018-07-03T06:45:36.499Z,23.66
2018-07-03T06:48:04.470Z,23.65
2018-07-03T06:50:32.393Z,24.09
2018-07-03T06:53:00.261Z,24.16
2018-07-03T06:55:28.174Z,24.74
2018-07-03T06:57:56.195Z,24.23
2018-07-03T07:00:24.014Z,25.06
2018-07-03T07:02:51.897Z,24.56
2018-07-03T07:05:19.800Z,24.57
2018-07-03T07:07:47.637Z,24.52
2018-07-03T07:10:15.498Z,24.07
2018-07-03T07:12:43.381Z,24.48
2018-07-03T07:15:11.289Z,25.44
2018-07-03T07:17:39.221Z,25.44
2018-07-03T07:20:07.208Z,25.34
2018-07-03T07:22:35.268Z,25.33
2018-07-03T07:25:03.156Z,25.24
2018-07-03T07:27:31.093Z,24.88
2018-07-03T07:29:58.905Z,25.07
2018-07-03T07:32:26.836Z,25.71
2018-07-03T07:34:54.841Z,25.59
2018-07-03T07:37:22.744Z,25.09
2018-07-03T07:39:50.648Z,25.28
2018-07-03T07:42:18.601Z,26.39
2018-07-03T07:44:46.426Z,26.36
2018-07-03T07:47:14.294Z,26.00
2018-07-03T07:49:42.656Z,26.21
2018-07-03T07:52:10.220Z,27.28
2018-07-03T07:54:38.139Z,26.99
2018-07-03T07:57:06.026Z,27.00
2018-07-03T07:59:33.878Z,26.91
2018-07-03T08:02:01.820Z,25.56
2018-07-03T08:04:29.664Z,25.82
2018-07-03T08:06:57.603Z,26.01
2018-07-03T08:09:25.471Z,26.23
2018-07-03T08:11:53.368Z,26.15
2018-07-03T08:14:21.281Z,25.90
2018-07-03T08:16:49.115Z,27.30
2018-07-03T08:19:17.027Z,26.39
2018-07-03T08:21:44.825Z,26.53
2018-07-03T08:24:12.676Z,25.85
2018-07-03T08:26:40.599Z,26.10
2018-07-03T08:29:08.492Z,26.08
2018-07-03T08:31:36.322Z,26.50
2018-07-03T08:34:04.248Z,26.08
2018-07-03T08:36:32.077Z,26.17
2018-07-03T08:38:59.913Z,26.40
2018-07-03T08:41:27.836Z,26.29
2018-07-03T08:43:55.736Z,26.07
2018-07-03T08:46:23.584Z,26.48
2018-07-03T08:48:51.409Z,26.22
2018-07-03T08:51:19.316Z,25.77
2018-07-03T08:53:47.101Z,26.16
2018-07-03T08:56:14.900Z,25.74
2018-07-03T08:58:42.765Z,26.15
2018-07-03T09:01:10.672Z,27.02
2018-07-03T09:03:38.547Z,26.02
2018-07-03T09:06:06.536Z,26.96
2018-07-03T09:08:34.373Z,25.77
2018-07-03T09:11:02.322Z,26.02
2018-07-03T09:13:30.158Z,25.95
2018-07-03T09:15:58.061Z,25.52
2018-07-03T09:18:25.961Z,25.15
2018-07-03T09:20:53.817Z,24.91
2018-07-03T09:23:21.725Z,24.41
2018-07-03T09:25:49.681Z,25.31
2018-07-03T09:28:17.541Z,24.95
2018-07-03T09:30:45.436Z,24.09
2018-07-03T09:33:13.258Z,24.19
2018-07-03T09:35:41.079Z,23.62
2018-07-03T09:38:08.959Z,24.14
2018-07-03T09:40:37.537Z,24.51
2018-07-03T09:43:05.605Z,23.02
2018-07-03T09:45:33.457Z,23.85
2018-07-03T09:48:01.326Z,23.67
2018-07-03T09:50:29.189Z,21.81
2018-07-03T09:52:57.157Z,21.71
2018-07-03T09:55:25.023Z,21.27
2018-07-03T09:57:53.242Z,19.64
2018-07-03T10:00:26.806Z,17.27
2018-07-03T10:02:55.249Z,16.45
2018-07-03T10:05:23.137Z,15.66
2018-07-03T10:07:50.981Z,14.67
2018-07-03T10:10:18.876Z,14.07
2018-07-03T10:12:46.812Z,13.07
2018-07-03T10:15:14.746Z,12.85
2018-07-03T10:17:42.597Z,12.59
2018-07-03T10:20:10.464Z,11.00
2018-07-03T10:22:38.377Z,11.10
2018-07-03T10:25:06.300Z,10.51
2018-07-03T10:27:34.254Z,10.06
2018-07-03T10:30:02.112Z,9.13
2018-07-03T10:32:30.074Z,8.88
2018-07-03T10:34:58.036Z,8.49
2018-07-03T10:37:25.935Z,7.62
2018-07-03T10:39:53.913Z,7.61
2018-07-03T10:42:21.901Z,7.19
2018-07-03T10:44:49.753Z,7.62
2018-07-03T10:47:17.666Z,7.83
2018-07-03T10:49:45.592Z,8.02
2018-07-03T10:52:13.461Z,8.24
2018-07-03T10:54:41.473Z,7.88
2018-07-03T10:57:09.608Z,7.30
2018-07-03T10:59:37.570Z,7.43
2018-07-03T11:02:05.880Z,7.19
2018-07-03T11:04:33.705Z,7.49
2018-07-03T11:07:01.609Z,7.25
2018-07-03T11:09:29.457Z,6.23
2018-07-03T11:11:57.292Z,6.67
2018-07-03T11:14:25.168Z,5.48
2018-07-03T11:16:53.046Z,6.18
2018-07-03T11:19:20.897Z,6.31
2018-07-03T11:21:48.788Z,6.25
2018-07-03T11:24:17.055Z,6.24
2018-07-03T11:26:44.939Z,5.39
2018-07-03T11:29:12.780Z,5.46
2018-07-03T11:31:40.632Z,5.69
2018-07-03T11:34:08.501Z,5.64
2018-07-03T11:36:36.376Z,5.31
2018-07-03T11:39:07.043Z,5.48
2018-07-03T11:41:35.114Z,5.95
2018-07-03T11:44:03.044Z,5.18
2018-07-03T11:46:30.965Z,5.62
2018-07-03T11:48:58.869Z,5.49
2018-07-03T11:51:26.725Z,5.26
2018-07-03T11:53:54.547Z,5.42
2018-07-03T11:56:22.528Z,5.82
2018-07-03T11:58:50.477Z,5.06
2018-07-03T12:01:18.507Z,4.89
2018-07-03T12:03:46.276Z,5.68
2018-07-03T12:06:14.341Z,5.23
2018-07-03T12:08:42.314Z,5.52
2018-07-03T12:11:10.435Z,5.54
2018-07-03T12:13:38.360Z,4.75
2018-07-03T12:16:06.245Z,5.96
2018-07-03T12:18:39.768Z,5.38
2018-07-03T12:21:07.636Z,5.91
2018-07-03T12:23:35.657Z,5.73
2018-07-03T12:26:03.554Z,6.45
2018-07-03T12:28:31.587Z,5.67
2018-07-03T12:30:59.420Z,5.62
2018-07-03T12:33:27.278Z,5.50
2018-07-03T12:35:55.125Z,6.30
2018-07-03T12:38:23.064Z,5.92
2018-07-03T12:40:50.996Z,5.66
2018-07-03T12:43:18.909Z,5.85
2018-07-03T12:45:46.893Z,5.59
2018-07-03T12:48:14.732Z,5.83
2018-07-03T12:50:42.644Z,5.58
2018-07-03T12:53:10.600Z,6.25
2018-07-03T12:55:38.494Z,5.85
2018-07-03T12:58:06.356Z,6.35
2018-07-03T13:00:34.386Z,6.31
2018-07-03T13:03:02.281Z,6.89
2018-07-03T13:05:30.178Z,6.65
2018-07-03T13:07:58.031Z,7.87
2018-07-03T13:10:25.917Z,7.25
2018-07-03T13:12:53.833Z,6.75
2018-07-03T13:15:21.704Z,7.31
2018-07-03T13:17:49.620Z,6.83
2018-07-03T13:20:17.477Z,7.77
2018-07-03T13:22:45.353Z,8.58
2018-07-03T13:25:13.373Z,9.03
2018-07-03T13:27:42.525Z,8.47
2018-07-03T13:30:10.700Z,8.93
2018-07-03T13:32:38.572Z,8.25
2018-07-03T13:35:07.943Z,8.63
2018-07-03T13:37:36.108Z,9.40
2018-07-03T13:40:05.493Z,9.04
2018-07-03T13:42:33.365Z,9.92
2018-07-03T13:45:01.249Z,9.65
2018-07-03T13:47:29.097Z,9.65
2018-07-03T13:49:57.050Z,9.73
2018-07-03T13:52:25.333Z,10.38
2018-07-03T13:54:53.290Z,9.18
2018-07-03T13:57:21.237Z,9.61
2018-07-03T13:59:49.113Z,10.29
2018-07-03T14:02:17.067Z,9.30
2018-07-03T14:04:44.918Z,9.79
2018-07-03T14:07:13.069Z,10.12
2018-07-03T14:09:40.994Z,10.35
2018-07-03T14:12:08.877Z,10.02
2018-07-03T14:14:36.952Z,9.17
2018-07-03T14:17:04.748Z,10.21
2018-07-03T14:19:36.832Z,9.86
2018-07-03T14:22:04.941Z,10.69
2018-07-03T14:24:32.817Z,9.75
2018-07-03T14:27:00.714Z,9.76
2018-07-03T14:29:30.600Z,10.49
2018-07-03T14:31:58.435Z,11.22
2018-07-03T14:34:26.380Z,10.33
2018-07-03T14:36:56.193Z,11.11
2018-07-03T14:39:25.905Z,11.53
2018-07-03T14:41:53.896Z,9.91
2018-07-03T14:44:21.855Z,10.08
2018-07-03T14:46:49.980Z,10.39
2018-07-03T14:49:17.936Z,10.73
2018-07-03T14:51:45.949Z,11.16
2018-07-03T14:54:13.800Z,11.68
2018-07-03T14:56:41.716Z,10.72
2018-07-03T14:59:09.721Z,11.06
2018-07-03T15:01:38.177Z,11.15
2018-07-03T15:04:06.037Z,10.72
2018-07-03T15:06:34.973Z,10.84
2018-07-03T15:09:05.604Z,11.08
2018-07-03T15:11:34.245Z,11.45
2018-07-03T15:14:03.225Z,11.69
2018-07-03T15:16:31.514Z,11.55
2018-07-03T15:19:04.928Z,12.22
2018-07-03T15:21:32.753Z,11.04
2018-07-03T15:24:00.613Z,11.21
2018-07-03T15:26:28.515Z,12.10
2018-07-03T15:28:56.289Z,11.84
2018-07-03T15:31:24.132Z,12.33
2018-07-03T15:33:52.488Z,11.48
2018-07-03T15:36:20.728Z,11.18
2018-07-03T15:38:48.607Z,12.07
2018-07-03T15:41:16.676Z,11.70
2018-07-03T15:44:01.980Z,12.59
2018-07-03T15:46:29.863Z,12.42
2018-07-03T15:48:57.742Z,13.35
2018-07-03T15:51:25.652Z,13.59
2018-07-03T15:53:54.576Z,12.72
2018-07-03T15:56:22.557Z,12.98
2018-07-03T15:58:50.444Z,12.66
2018-07-03T16:01:19.219Z,12.69
2018-07-03T16:05:03.509Z,12.09
2018-07-03T16:08:50.652Z,12.20
2018-07-03T16:11:18.595Z,12.55
2018-07-03T16:13:46.426Z,12.62
2018-07-03T16:16:15.093Z,13.02
2018-07-03T16:18:42.989Z,12.17
2018-07-03T16:21:10.857Z,13.28
2018-07-03T16:23:38.734Z,13.72
2018-07-03T16:26:06.697Z,13.69
2018-07-03T16:28:34.646Z,14.57
2018-07-03T16:31:02.556Z,13.03
2018-07-03T16:33:30.573Z,14.14
2018-07-03T16:35:58.434Z,14.35
2018-07-03T16:38:26.349Z,13.83
2018-07-03T16:40:54.289Z,14.08
2018-07-03T16:43:22.158Z,13.50
2018-07-03T16:45:50.016Z,13.23
2018-07-03T16:48:18.034Z,14.12
2018-07-03T16:50:47.897Z,13.93
2018-07-03T16:53:24.221Z,13.30
2018-07-03T16:55:52.065Z,14.43
2018-07-03T16:58:19.944Z,13.73
2018-07-03T17:00:47.815Z,13.06
2018-07-03T17:03:15.781Z,13.55
2018-07-03T17:05:43.715Z,13.76
2018-07-03T17:08:11.673Z,14.83
2018-07-03T17:10:39.625Z,13.96
2018-07-03T17:13:07.572Z,14.08
2018-07-03T17:15:35.477Z,14.31
2018-07-03T17:18:03.365Z,14.75
2018-07-03T17:20:31.179Z,14.50
2018-07-03T17:22:59.049Z,14.87
2018-07-03T17:25:26.936Z,15.98
2018-07-03T17:27:54.786Z,14.91
2018-07-03T17:30:22.841Z,14.76
2018-07-03T17:32:50.747Z,14.98
2018-07-03T17:35:18.690Z,15.39
2018-07-03T17:37:46.630Z,15.91
2018-07-03T17:40:31.877Z,15.81
2018-07-03T17:44:26.457Z,16.32
2018-07-03T17:46:54.385Z,16.34
2018-07-03T17:49:22.272Z,16.32
2018-07-03T17:51:50.153Z,16.30
2018-07-03T17:54:18.178Z,16.57
2018-07-03T17:56:46.070Z,17.42
2018-07-03T17:59:13.976Z,17.86
2018-07-03T18:01:41.911Z,18.03
2018-07-03T18:04:13.290Z,17.60
2018-07-03T18:06:41.187Z,16.93
2018-07-03T18:09:11.141Z,17.83
2018-07-03T18:11:39.080Z,18.47
2018-07-03T18:14:07.152Z,17.63
2018-07-03T18:16:34.997Z,17.82
2018-07-03T18:19:08.772Z,18.28
2018-07-03T18:21:36.684Z,17.61
2018-07-03T18:24:05.103Z,17.84
2018-07-03T18:26:33.376Z,18.48
2018-07-03T18:29:01.378Z,18.29
2018-07-03T18:31:29.297Z,18.34
2018-07-03T18:33:57.250Z,17.83
2018-07-03T18:36:25.093Z,18.04
2018-07-03T18:38:52.957Z,18.59
2018-07-03T18:41:20.876Z,18.79
2018-07-03T18:43:48.749Z,18.21
2018-07-03T18:46:16.664Z,19.49
2018-07-03T18:48:44.605Z,18.66
2018-07-03T18:51:12.526Z,19.19
2018-07-03T18:53:40.404Z,19.75
2018-07-03T18:56:08.271Z,19.74
2018-07-03T18:58:36.217Z,19.58
2018-07-03T19:01:04.240Z,20.04
2018-07-03T19:03:32.200Z,20.12
2018-07-03T19:06:00.095Z,19.78
2018-07-03T19:08:27.908Z,19.94
2018-07-03T19:10:55.789Z,20.76
2018-07-03T19:13:23.717Z,20.62
2018-07-03T19:15:51.568Z,20.82
2018-07-03T19:18:19.475Z,21.83
2018-07-03T19:20:47.566Z,21.75
2018-07-03T19:23:15.521Z,21.35
2018-07-03T19:25:43.465Z,21.38
2018-07-03T19:28:11.342Z,21.27
2018-07-03T19:30:39.239Z,20.87
2018-07-03T19:33:07.150Z,22.45
2018-07-03T19:35:34.942Z,21.77
2018-07-03T19:38:03.125Z,25.29
2018-07-03T19:40:30.916Z,24.46
2018-07-03T19:43:32.538Z,26.28
2018-07-03T19:46:01.121Z,26.71
2018-07-03T19:48:28.957Z,26.30
2018-07-03T19:50:56.940Z,26.47
2018-07-03T19:53:24.768Z,26.75
2018-07-03T19:55:53.903Z,27.23
2018-07-03T19:58:22.060Z,27.47
2018-07-03T20:00:51.013Z,26.26
2018-07-03T20:03:18.961Z,26.48
2018-07-03T20:05:46.829Z,26.16
2018-07-03T20:08:14.757Z,26.45
2018-07-03T20:10:42.730Z,25.96
2018-07-03T20:13:12.822Z,28.04
2018-07-03T20:15:40.694Z,27.94
2018-07-03T20:18:10.170Z,27.94
2018-07-03T20:20:38.341Z,30.00
2018-07-03T20:23:06.314Z,31.63
2018-07-03T20:25:35.049Z,32.37
2018-07-03T20:28:02.969Z,31.43
2018-07-03T20:30:30.904Z,33.92
2018-07-03T20:32:58.985Z,34.07
2018-07-03T20:35:27.021Z,34.24
2018-07-03T20:38:03.120Z,34.32
2018-07-03T20:41:03.161Z,35.58
2018-07-03T20:43:32.511Z,34.94
2018-07-03T20:46:00.445Z,34.43
2018-07-03T20:48:28.465Z,33.21
2018-07-03T20:50:57.141Z,34.36
2018-07-03T20:53:25.097Z,35.89
2018-07-03T20:55:53.007Z,35.32
2018-07-03T20:58:21.216Z,36.27
2018-07-03T21:00:49.061Z,36.67
2018-07-03T21:03:16.985Z,37.78
2018-07-03T21:05:44.819Z,37.78
2018-07-03T21:08:12.718Z,37.99
2018-07-03T21:10:40.677Z,39.53
2018-07-03T21:13:08.599Z,38.04
2018-07-03T21:15:36.429Z,38.84
2018-07-03T21:18:04.327Z,38.98
2018-07-03T21:20:32.251Z,38.79
2018-07-03T21:23:00.264Z,37.56
2018-07-03T21:25:28.169Z,37.87
2018-07-03T21:27:56.044Z,37.76
2018-07-03T21:30:23.970Z,39.22
2018-07-03T21:32:51.837Z,38.42
2018-07-03T21:35:20.473Z,37.79
2018-07-03T21:37:48.567Z,37.20
2018-07-03T21:40:16.454Z,37.01
2018-07-03T21:42:44.308Z,38.15
2018-07-03T21:45:12.089Z,38.69
2018-07-03T21:47:39.881Z,38.50
2018-07-03T21:50:07.789Z,40.53
2018-07-03T21:52:35.645Z,41.71
2018-07-03T21:55:03.589Z,41.46
2018-07-03T21:57:31.501Z,43.19
2018-07-03T21:59:59.424Z,42.03
2018-07-03T22:02:27.290Z,43.11
2018-07-03T22:04:55.125Z,40.31
2018-07-03T22:07:23.064Z,43.47
2018-07-03T22:09:51.009Z,39.18
2018-07-03T22:12:18.876Z,39.41
2018-07-03T22:14:46.754Z,38.25
2018-07-03T22:17:14.601Z,36.47
2018-07-03T22:19:42.530Z,36.30
2018-07-03T22:22:10.465Z,37.23
2018-07-03T22:24:38.256Z,34.70
2018-07-03T22:27:06.100Z,35.19
2018-07-03T22:29:33.907Z,35.17
2018-07-03T22:32:11.179Z,37.86
2018-07-03T22:34:40.097Z,41.67
2018-07-03T22:37:07.991Z,38.69
2018-07-03T22:39:39.818Z,41.74
2018-07-03T22:42:12.418Z,41.01
2018-07-03T22:44:40.782Z,39.37
2018-07-03T22:47:08.789Z,39.88
2018-07-03T22:49:36.595Z,41.25
2018-07-03T22:52:04.757Z,41.53
2018-07-03T22:54:32.641Z,40.79
2018-07-03T22:57:00.589Z,40.92
2018-07-03T22:59:28.448Z,39.00
2018-07-03T23:01:56.286Z,39.50
2018-07-03T23:04:24.221Z,38.28
2018-07-03T23:06:52.243Z,42.50
2018-07-03T23:09:20.174Z,42.60
2018-07-03T23:11:48.034Z,41.79
2018-07-03T23:14:15.932Z,43.73
2018-07-03T23:16:43.836Z,42.03
2018-07-03T23:19:11.756Z,42.61
2018-07-03T23:21:39.679Z,40.99
2018-07-03T23:24:07.577Z,41.54
2018-07-03T23:26:35.439Z,42.78
2018-07-03T23:29:03.281Z,43.45
2018-07-03T23:31:31.146Z,49.27
2018-07-03T23:33:59.043Z,45.60
2018-07-03T23:36:26.941Z,47.02
2018-07-03T23:38:54.897Z,47.15
2018-07-03T23:41:22.809Z,48.48
2018-07-03T23:43:51.223Z,49.06
2018-07-03T23:46:36.417Z,48.13
2018-07-03T23:49:21.508Z,48.61
2018-07-03T23:52:06.604Z,46.24
2018-07-03T23:54:51.632Z,45.94
2018-07-03T23:57:36.817Z,42.40
